Arrowsic, Maine
Current Conditions -  °F | °C
As of 4:00 PM on Thursday 23 Oct 2014 (Local Time) from KIWI Reporting Station
Overcast Overcast  
Wind Chill: 52°   Ceiling: 1200
Heat Index: 52°   Visibility: 10mi
Dew Point: 49°   Wind: 8mph
Humidity: 89%   Direction: 40°NE
Pressure: 29.75"   Gusts: NA
Location:  43.8797°N, 69.8408°W
Report Text: KIWI 232000Z AUTO 04007KT 10SM BKN012 OVC019 11/09 A2975 RMK AO2 T01110094
Loading
Personal Weather Stations






























Interactive Weather Map
Tropical Storm Tracking
New forecast layout! Learn more

10-Day Weather Forecast

Advertisements
Track Severe Weather on mobile